Airfield :







YOU CAN JOIN US ON...

 
LOGIN :

Register | Disclaimer

   EN    FR    IT 

 









Legend :    VFR   Marginal VFR   IFR   Intensive IFR   Very Intensive IFR
Visi :
Ceiling :
>= 8 km
>= 3000ft
5 to 8 km
1000 to 3000 ft
1500m to 5 km
500 to 1000 ft
800 to 1500m
200 to 500 ft
< 800m
< 200 ft
Symbols :   Thunderstorms  Fog  Heavy snow  Heavy precipitations  Wind > 20 kt






- Airport Elevation : 988 ft


KFVE - Northern Aroostook Regional

CURRENT METAR :
  • 062353Z AUTO 32024G33KT 10SM FEW060 FEW080 01/M09 A2973 RMK AO2 PK WND 32034/2316 SLP075 60000 T00111094 10044 20011 51020

EXPIRED METARs :
  • 062253Z AUTO 31016G23KT 10SM SCT080 OVC090 02/M08 A2971 RMK AO2 SLP068 T00171083
  • 062153Z AUTO 32020G27KT 10SM BKN070 OVC100 02/M08 A2970 RMK AO2 PK WND 32027/2148 SLP064 T00221083

TAF KFVE
Valid from the 07 at 00:00 until the 08 at 00:00 UTC


062320Z 0700/0724 30010G22KT P6SM BKN090
FM070500 31008KT P6SM SCT080
FM071400 31011KT P6SM BKN050



MET'MAP, your aeronautical weather chart ! - Copyright ORBIFLY December 2007 - Disclaimer

ORBIFLY MET'MAP TEAM :

Programming & Development : Alexandra Zaïnal
Concept & original design : Baudouin d'Aumeries
Assistance for programming : Marc-Olivier Méhu
Technical & hardware support : Manuel Goepfert

Contact : metmap@orbifly.com




SOURCES & CREDITS :

   NOAA